createdAt,value
2022-12-03T00:00:08.948Z,17.68
2022-12-03T00:02:38.613Z,16.17
2022-12-03T00:05:05.509Z,16.88
2022-12-03T00:07:32.101Z,17.05
2022-12-03T00:09:58.593Z,18.59
2022-12-03T00:12:25.055Z,19.58
2022-12-03T00:14:51.531Z,18.52
2022-12-03T00:17:18.128Z,17.63
2022-12-03T00:19:44.577Z,17.28
2022-12-03T00:22:12.822Z,17.02
2022-12-03T00:24:39.420Z,16.32
2022-12-03T00:27:05.910Z,15.99
2022-12-03T00:29:32.393Z,15.38
2022-12-03T00:31:58.950Z,15.82
2022-12-03T00:34:25.404Z,16.30
2022-12-03T00:36:51.901Z,16.84
2022-12-03T00:39:18.449Z,16.76
2022-12-03T00:41:44.939Z,16.91
2022-12-03T00:44:11.379Z,16.10
2022-12-03T00:46:37.871Z,19.36
2022-12-03T00:49:04.346Z,18.37
2022-12-03T00:51:30.835Z,15.84
2022-12-03T00:53:57.341Z,15.52
2022-12-03T00:56:24.076Z,15.40
2022-12-03T00:58:50.606Z,15.31
2022-12-03T01:01:17.131Z,15.35
2022-12-03T01:03:43.645Z,15.13
2022-12-03T01:06:10.171Z,15.12
2022-12-03T01:08:36.674Z,14.98
2022-12-03T01:11:03.199Z,15.15
2022-12-03T01:13:29.658Z,14.44
2022-12-03T01:15:56.176Z,14.59
2022-12-03T01:18:22.682Z,14.50
2022-12-03T01:20:49.199Z,15.12
2022-12-03T01:23:15.681Z,15.79
2022-12-03T01:25:42.133Z,15.70
2022-12-03T01:28:08.621Z,15.21
2022-12-03T01:30:35.089Z,15.21
2022-12-03T01:33:01.553Z,14.64
2022-12-03T01:35:28.020Z,14.86
2022-12-03T01:37:54.599Z,14.71
2022-12-03T01:40:21.985Z,14.01
2022-12-03T01:42:48.533Z,14.66
2022-12-03T01:45:23.574Z,14.41
2022-12-03T01:47:50.189Z,13.82
2022-12-03T01:50:30.078Z,14.19
2022-12-03T01:53:01.567Z,13.68
2022-12-03T01:55:28.544Z,13.94
2022-12-03T01:57:59.592Z,13.48
2022-12-03T02:00:27.247Z,13.87
2022-12-03T02:03:00.200Z,13.98
2022-12-03T02:05:30.471Z,13.79
2022-12-03T02:07:58.055Z,13.49
2022-12-03T02:10:35.692Z,13.43
2022-12-03T02:13:07.547Z,13.13
2022-12-03T02:15:35.272Z,13.55
2022-12-03T02:18:02.291Z,13.97
2022-12-03T02:20:32.926Z,13.27
2022-12-03T02:23:26.232Z,13.35
2022-12-03T02:25:52.771Z,13.69
2022-12-03T02:28:19.367Z,14.37
2022-12-03T02:30:45.980Z,14.15
2022-12-03T02:33:12.585Z,14.33
2022-12-03T02:35:39.745Z,13.92
2022-12-03T02:38:17.072Z,13.77
2022-12-03T02:40:46.332Z,13.66
2022-12-03T02:43:16.251Z,14.72
2022-12-03T02:45:47.471Z,14.49
2022-12-03T02:48:19.360Z,14.49
2022-12-03T02:50:52.251Z,15.22
2022-12-03T02:53:26.331Z,15.41
2022-12-03T02:55:55.741Z,15.41
2022-12-03T02:58:24.840Z,15.06
2022-12-03T03:00:54.920Z,15.36
2022-12-03T03:03:23.890Z,15.44
2022-12-03T03:05:50.880Z,15.43
2022-12-03T03:08:18.738Z,15.81
2022-12-03T03:10:47.829Z,15.87
2022-12-03T03:13:17.153Z,15.62
2022-12-03T03:15:44.679Z,16.45
2022-12-03T03:18:13.155Z,16.08
2022-12-03T03:20:41.486Z,15.59
2022-12-03T03:23:10.684Z,15.93
2022-12-03T03:25:39.410Z,16.04
2022-12-03T03:28:07.215Z,15.57
2022-12-03T03:30:36.297Z,16.02
2022-12-03T03:33:02.886Z,15.06
2022-12-03T03:35:29.819Z,14.89
2022-12-03T03:37:57.705Z,15.52
2022-12-03T03:40:26.048Z,15.27
2022-12-03T03:42:53.087Z,14.97
2022-12-03T03:45:22.728Z,14.47
2022-12-03T03:47:54.768Z,15.05
2022-12-03T03:50:22.152Z,15.06
2022-12-03T03:52:48.977Z,14.94
2022-12-03T03:55:15.549Z,14.80
2022-12-03T03:57:42.074Z,14.70
2022-12-03T04:00:09.616Z,15.02
2022-12-03T04:02:37.552Z,14.80
2022-12-03T04:05:05.035Z,15.04
2022-12-03T04:07:31.565Z,14.91
2022-12-03T04:09:58.076Z,15.26
2022-12-03T04:12:41.004Z,15.02
2022-12-03T04:15:25.707Z,14.93
2022-12-03T04:18:06.829Z,14.77
2022-12-03T04:20:33.294Z,14.91
2022-12-03T04:22:59.767Z,14.77
2022-12-03T04:25:26.229Z,14.35
2022-12-03T04:27:52.677Z,14.25
2022-12-03T04:30:19.145Z,14.72
2022-12-03T04:32:45.638Z,14.77
2022-12-03T04:35:12.161Z,14.49
2022-12-03T04:37:38.749Z,14.82
2022-12-03T04:40:06.064Z,14.37
2022-12-03T04:42:32.556Z,14.67
2022-12-03T04:44:59.027Z,14.62
2022-12-03T04:47:25.536Z,14.73
2022-12-03T04:49:52.044Z,14.67
2022-12-03T04:52:20.551Z,14.43
2022-12-03T04:54:47.120Z,13.70
2022-12-03T04:57:13.598Z,13.66
2022-12-03T04:59:40.124Z,14.38
2022-12-03T05:02:07.512Z,13.43
2022-12-03T05:04:34.066Z,13.40
2022-12-03T05:07:00.717Z,13.50
2022-12-03T05:09:27.184Z,13.80
2022-12-03T05:11:53.687Z,13.61
2022-12-03T05:14:20.236Z,13.75
2022-12-03T05:16:46.677Z,13.90
2022-12-03T05:19:13.149Z,14.13
2022-12-03T05:21:39.621Z,14.13
2022-12-03T05:24:06.143Z,13.87
2022-12-03T05:26:32.749Z,14.00
2022-12-03T05:28:59.239Z,13.78
2022-12-03T05:31:25.742Z,13.65
2022-12-03T05:33:52.261Z,13.62
2022-12-03T05:36:18.729Z,13.93
2022-12-03T05:38:45.373Z,13.63
2022-12-03T05:41:14.571Z,13.64
2022-12-03T05:43:41.030Z,13.43
2022-12-03T05:46:07.536Z,13.29
2022-12-03T05:48:34.038Z,12.70
2022-12-03T05:51:00.508Z,12.87
2022-12-03T05:53:26.979Z,12.56
2022-12-03T05:55:53.465Z,12.94
2022-12-03T05:58:19.913Z,12.73
2022-12-03T06:00:46.374Z,13.37
2022-12-03T06:03:12.992Z,12.99
2022-12-03T06:05:39.582Z,12.72
2022-12-03T06:08:06.143Z,12.47
2022-12-03T06:10:32.688Z,13.01
2022-12-03T06:12:59.148Z,13.03
2022-12-03T06:15:25.635Z,12.43
2022-12-03T06:17:52.129Z,12.82
2022-12-03T06:20:20.080Z,12.23
2022-12-03T06:22:47.104Z,12.58
2022-12-03T06:25:14.863Z,12.30
2022-12-03T06:27:41.441Z,12.27
2022-12-03T06:30:08.513Z,12.23
2022-12-03T06:32:35.056Z,12.51
2022-12-03T06:35:01.587Z,12.23
2022-12-03T06:37:28.075Z,11.95
2022-12-03T06:39:54.512Z,12.38
2022-12-03T06:42:20.956Z,12.38
2022-12-03T06:44:47.462Z,12.06
2022-12-03T06:47:13.932Z,11.97
2022-12-03T06:49:40.451Z,11.98
2022-12-03T06:52:06.908Z,11.53
2022-12-03T06:54:33.397Z,11.42
2022-12-03T06:56:59.885Z,11.61
2022-12-03T06:59:26.373Z,11.82
2022-12-03T07:01:52.896Z,11.41
2022-12-03T07:04:19.480Z,11.34
2022-12-03T07:06:45.964Z,11.60
2022-12-03T07:09:12.406Z,11.40
2022-12-03T07:11:38.869Z,11.42
2022-12-03T07:14:07.617Z,11.78
2022-12-03T07:16:35.556Z,11.61
2022-12-03T07:19:02.544Z,11.42
2022-12-03T07:21:29.268Z,11.63
2022-12-03T07:23:55.819Z,11.59
2022-12-03T07:26:22.296Z,11.32
2022-12-03T07:28:48.749Z,11.28
2022-12-03T07:31:15.569Z,11.72
2022-12-03T07:33:42.077Z,11.78
2022-12-03T07:36:09.047Z,11.56
2022-12-03T07:38:35.521Z,11.03
2022-12-03T07:41:01.985Z,11.31
2022-12-03T07:43:28.461Z,11.62
2022-12-03T07:45:54.991Z,11.92
2022-12-03T07:48:21.479Z,11.37
2022-12-03T07:50:47.953Z,11.30
2022-12-03T07:53:14.510Z,11.60
2022-12-03T07:55:40.992Z,11.49
2022-12-03T07:58:07.459Z,11.10
2022-12-03T08:00:33.987Z,12.03
2022-12-03T08:03:00.468Z,11.56
2022-12-03T08:05:26.914Z,11.83
2022-12-03T08:07:53.410Z,12.24
2022-12-03T08:10:19.939Z,11.72
2022-12-03T08:12:46.730Z,12.13
2022-12-03T08:15:16.949Z,12.03
2022-12-03T08:17:46.900Z,12.22
2022-12-03T08:20:19.798Z,12.69
2022-12-03T08:22:49.590Z,12.51
2022-12-03T08:25:29.299Z,11.90
2022-12-03T08:28:02.348Z,12.13
2022-12-03T08:30:28.904Z,12.10
2022-12-03T08:32:58.040Z,12.50
2022-12-03T08:35:30.247Z,12.01
2022-12-03T08:38:09.415Z,12.19
2022-12-03T08:40:40.713Z,12.73
2022-12-03T08:43:18.208Z,12.90
2022-12-03T08:45:45.627Z,13.04
2022-12-03T08:48:25.010Z,13.59
2022-12-03T08:50:53.444Z,13.61
2022-12-03T08:53:35.763Z,13.85
2022-12-03T08:56:04.867Z,13.59
2022-12-03T08:58:39.126Z,13.59
2022-12-03T09:01:08.395Z,13.12
2022-12-03T09:03:35.057Z,13.10
2022-12-03T09:06:01.735Z,13.48
2022-12-03T09:08:28.409Z,13.74
2022-12-03T09:10:54.905Z,14.27
2022-12-03T09:13:21.533Z,14.58
2022-12-03T09:15:48.011Z,13.62
2022-12-03T09:18:14.763Z,13.98
2022-12-03T09:20:41.356Z,14.75
2022-12-03T09:23:07.990Z,15.05
2022-12-03T09:25:34.492Z,14.53
2022-12-03T09:28:00.970Z,14.87
2022-12-03T09:30:27.551Z,14.97
2022-12-03T09:32:54.163Z,14.70
2022-12-03T09:35:20.633Z,15.06
2022-12-03T09:37:47.119Z,14.71
2022-12-03T09:40:14.296Z,14.80
2022-12-03T09:42:41.342Z,15.05
2022-12-03T09:45:12.049Z,14.90
2022-12-03T09:47:43.775Z,15.43
2022-12-03T09:50:17.073Z,15.19
2022-12-03T09:52:43.516Z,15.08
2022-12-03T09:55:20.700Z,15.34
2022-12-03T09:57:47.453Z,15.39
2022-12-03T10:00:19.512Z,15.59
2022-12-03T10:02:48.582Z,15.94
2022-12-03T10:05:15.239Z,16.37
2022-12-03T10:07:42.442Z,15.81
2022-12-03T10:10:18.064Z,16.00
2022-12-03T10:12:45.491Z,16.41
2022-12-03T10:15:15.891Z,16.13
2022-12-03T10:17:42.796Z,16.01
2022-12-03T10:20:16.726Z,15.10
2022-12-03T10:22:43.252Z,14.94
2022-12-03T10:25:13.485Z,14.69
2022-12-03T10:27:40.781Z,15.08
2022-12-03T10:30:19.602Z,15.22
2022-12-03T10:33:14.373Z,15.56
2022-12-03T10:35:43.879Z,15.61
2022-12-03T10:38:19.869Z,15.45
2022-12-03T10:40:46.510Z,14.97
2022-12-03T10:43:19.083Z,15.27
2022-12-03T10:46:03.481Z,15.41
2022-12-03T10:48:30.809Z,15.89
2022-12-03T10:50:57.256Z,16.97
2022-12-03T10:53:29.298Z,16.39
2022-12-03T10:55:56.239Z,16.41
2022-12-03T10:58:25.697Z,16.85
2022-12-03T11:00:55.172Z,16.80
2022-12-03T11:03:28.785Z,16.72
2022-12-03T11:05:57.114Z,17.33
2022-12-03T11:08:26.630Z,16.78
2022-12-03T11:11:00.984Z,17.08
2022-12-03T11:13:33.397Z,16.37
2022-12-03T11:16:01.519Z,16.17
2022-12-03T11:18:36.802Z,16.05
2022-12-03T11:21:09.824Z,16.44
2022-12-03T11:23:45.431Z,16.43
2022-12-03T11:26:18.423Z,16.93
2022-12-03T11:28:45.513Z,16.56
2022-12-03T11:31:33.788Z,16.19
2022-12-03T11:34:18.555Z,16.06
2022-12-03T11:37:20.283Z,15.72
2022-12-03T11:39:49.494Z,16.45
2022-12-03T11:42:22.313Z,15.84
2022-12-03T11:45:08.658Z,15.88
2022-12-03T11:48:03.634Z,15.95
2022-12-03T11:50:40.810Z,15.73
2022-12-03T11:53:21.080Z,15.89
2022-12-03T11:55:52.097Z,18.23
2022-12-03T11:58:30.363Z,16.60
2022-12-03T12:01:00.021Z,17.04
2022-12-03T12:03:35.430Z,16.88
2022-12-03T12:06:08.248Z,16.16
2022-12-03T12:08:37.357Z,16.51
2022-12-03T12:11:16.556Z,16.70
2022-12-03T12:13:42.968Z,16.10
2022-12-03T12:16:09.681Z,16.26
2022-12-03T12:18:38.829Z,16.33
2022-12-03T12:21:43.104Z,16.26
2022-12-03T12:24:37.550Z,16.78
2022-12-03T12:27:10.323Z,16.86
2022-12-03T12:29:38.909Z,16.51
2022-12-03T12:32:08.356Z,16.16
2022-12-03T12:34:38.264Z,16.91
2022-12-03T12:37:11.565Z,16.49
2022-12-03T12:39:38.449Z,16.37
2022-12-03T12:42:36.292Z,16.66
2022-12-03T12:45:08.914Z,16.54
2022-12-03T12:47:36.241Z,16.51
2022-12-03T12:50:10.440Z,16.25
2022-12-03T12:52:49.107Z,16.99
2022-12-03T12:55:15.655Z,16.56
2022-12-03T12:57:42.210Z,16.70
2022-12-03T13:00:19.064Z,16.55
2022-12-03T13:02:50.921Z,17.32
2022-12-03T13:05:17.919Z,16.95
2022-12-03T13:07:45.414Z,17.70
2022-12-03T13:10:35.416Z,18.52
2022-12-03T13:13:20.491Z,18.27
2022-12-03T13:15:57.111Z,17.91
2022-12-03T13:18:35.005Z,18.26
2022-12-03T13:21:33.484Z,18.30
2022-12-03T13:24:00.824Z,18.37
2022-12-03T13:26:38.581Z,18.02
2022-12-03T13:29:18.213Z,19.28
2022-12-03T13:31:58.346Z,18.57
2022-12-03T13:34:28.261Z,18.50
2022-12-03T13:36:58.529Z,18.05
2022-12-03T13:39:31.365Z,18.38
2022-12-03T13:42:33.181Z,17.73
2022-12-03T13:45:02.478Z,17.56
2022-12-03T13:47:29.084Z,18.08
2022-12-03T13:50:00.480Z,17.95
2022-12-03T13:52:27.097Z,18.11
2022-12-03T13:54:55.926Z,18.83
2022-12-03T13:57:23.065Z,19.17
2022-12-03T13:59:49.686Z,19.78
2022-12-03T14:02:16.264Z,20.17
2022-12-03T14:04:42.782Z,19.74
2022-12-03T14:07:09.258Z,19.65
2022-12-03T14:09:35.804Z,19.19
2022-12-03T14:12:02.264Z,19.45
2022-12-03T14:14:28.748Z,19.66
2022-12-03T14:16:59.662Z,19.62
2022-12-03T14:19:26.603Z,20.00
2022-12-03T14:21:53.138Z,19.87
2022-12-03T14:24:19.586Z,19.65
2022-12-03T14:26:46.051Z,20.14
2022-12-03T14:29:12.509Z,20.09
2022-12-03T14:31:39.056Z,19.98
2022-12-03T14:34:05.581Z,20.49
2022-12-03T14:36:32.191Z,20.50
2022-12-03T14:38:58.717Z,20.11
2022-12-03T14:41:25.285Z,20.66
2022-12-03T14:43:51.751Z,20.95
2022-12-03T14:46:18.313Z,21.81
2022-12-03T14:48:44.981Z,20.79
2022-12-03T14:51:11.447Z,20.72
2022-12-03T14:53:37.935Z,21.02
2022-12-03T14:56:04.470Z,21.24
2022-12-03T14:58:30.926Z,23.32
2022-12-03T15:00:57.454Z,22.10
2022-12-03T15:03:24.087Z,20.76
2022-12-03T15:05:50.695Z,20.24
2022-12-03T15:08:17.266Z,20.38
2022-12-03T15:10:43.788Z,20.44
2022-12-03T15:13:10.236Z,21.28
2022-12-03T15:15:36.690Z,21.32
2022-12-03T15:18:03.229Z,21.02
2022-12-03T15:20:30.934Z,21.16
2022-12-03T15:22:57.446Z,20.24
2022-12-03T15:25:23.989Z,20.16
2022-12-03T15:27:50.641Z,20.14
2022-12-03T15:30:17.457Z,21.01
2022-12-03T15:32:43.953Z,20.51
2022-12-03T15:35:10.449Z,20.54
2022-12-03T15:37:36.901Z,22.44
2022-12-03T15:40:03.548Z,22.74
2022-12-03T15:42:30.004Z,23.13
2022-12-03T15:44:56.537Z,24.06
2022-12-03T15:47:22.969Z,23.44
2022-12-03T15:49:49.429Z,22.60
2022-12-03T15:52:15.897Z,22.88
2022-12-03T15:54:42.398Z,21.29
2022-12-03T15:57:08.857Z,21.71
2022-12-03T15:59:35.337Z,22.37
2022-12-03T16:02:01.909Z,21.96
2022-12-03T16:04:28.477Z,21.53
2022-12-03T16:06:54.926Z,22.29
2022-12-03T16:09:27.084Z,22.49
2022-12-03T16:11:54.269Z,22.51
2022-12-03T16:14:20.720Z,21.34
2022-12-03T16:16:47.201Z,21.54
2022-12-03T16:19:13.635Z,22.35
2022-12-03T16:21:40.093Z,23.21
2022-12-03T16:24:06.751Z,21.66
2022-12-03T16:26:33.261Z,21.97
2022-12-03T16:28:59.751Z,21.23
2022-12-03T16:31:27.245Z,21.53
2022-12-03T16:33:53.741Z,21.39
2022-12-03T16:36:20.331Z,21.63
2022-12-03T16:38:46.853Z,21.76
2022-12-03T16:41:13.336Z,20.37
2022-12-03T16:43:39.817Z,20.46
2022-12-03T16:46:07.325Z,20.94
2022-12-03T16:48:33.821Z,23.26
2022-12-03T16:51:00.295Z,20.16
2022-12-03T16:53:26.792Z,21.14
2022-12-03T16:55:53.275Z,20.65
2022-12-03T16:58:19.769Z,19.63
2022-12-03T17:00:46.420Z,20.55
2022-12-03T17:03:12.929Z,20.30
2022-12-03T17:05:39.532Z,20.25
2022-12-03T17:08:06.089Z,21.22
2022-12-03T17:10:32.696Z,19.90
2022-12-03T17:13:14.508Z,20.68
2022-12-03T17:15:41.352Z,20.11
2022-12-03T17:18:08.531Z,21.94
2022-12-03T17:20:35.396Z,22.08
2022-12-03T17:23:02.437Z,21.15
2022-12-03T17:25:29.758Z,20.56
2022-12-03T17:27:56.299Z,20.45
2022-12-03T17:30:23.036Z,20.91
2022-12-03T17:32:49.503Z,20.18
2022-12-03T17:35:18.182Z,21.26
2022-12-03T17:37:44.968Z,20.89
2022-12-03T17:40:13.937Z,20.20
2022-12-03T17:42:40.424Z,19.55
2022-12-03T17:45:07.644Z,19.71
2022-12-03T17:47:34.169Z,19.87
2022-12-03T17:50:00.652Z,20.79
2022-12-03T17:52:27.120Z,20.28
2022-12-03T17:55:12.861Z,19.45
2022-12-03T17:57:40.082Z,20.69
2022-12-03T18:00:07.176Z,20.49
2022-12-03T18:02:33.643Z,20.35
2022-12-03T18:05:00.075Z,20.51
2022-12-03T18:07:26.586Z,20.38
2022-12-03T18:09:53.374Z,20.73
2022-12-03T18:12:20.131Z,20.79
2022-12-03T18:14:46.639Z,21.06
2022-12-03T18:17:13.081Z,20.93
2022-12-03T18:19:39.614Z,20.49
2022-12-03T18:22:06.203Z,21.12
2022-12-03T18:24:51.521Z,21.60
2022-12-03T18:27:20.373Z,21.89
2022-12-03T18:29:46.872Z,21.23
2022-12-03T18:32:27.677Z,21.12
2022-12-03T18:34:55.708Z,21.22
2022-12-03T18:37:26.937Z,20.60
2022-12-03T18:39:54.121Z,20.27
2022-12-03T18:42:22.811Z,20.17
2022-12-03T18:44:51.908Z,20.27
2022-12-03T18:47:22.327Z,20.55
2022-12-03T18:49:48.976Z,20.34
2022-12-03T18:52:18.863Z,20.41
2022-12-03T18:54:46.121Z,19.73
2022-12-03T18:57:12.979Z,20.44
2022-12-03T18:59:40.230Z,20.22
2022-12-03T19:02:07.947Z,20.52
2022-12-03T19:04:34.455Z,20.38
2022-12-03T19:07:00.920Z,20.21
2022-12-03T19:09:27.382Z,20.27
2022-12-03T19:11:53.877Z,20.86
2022-12-03T19:14:20.328Z,21.18
2022-12-03T19:16:46.893Z,21.39
2022-12-03T19:19:13.389Z,21.24
2022-12-03T19:21:39.869Z,19.82
2022-12-03T19:26:53.237Z,20.73
2022-12-03T19:29:20.334Z,21.29
2022-12-03T19:31:48.420Z,21.61
2022-12-03T19:34:14.939Z,20.74
2022-12-03T19:36:41.416Z,20.95
2022-12-03T19:39:07.870Z,20.33
2022-12-03T19:41:34.396Z,20.82
2022-12-03T19:44:01.717Z,20.23
2022-12-03T19:46:30.606Z,20.64
2022-12-03T19:48:57.271Z,21.42
2022-12-03T19:51:34.676Z,23.12
2022-12-03T19:54:04.290Z,21.84
2022-12-03T19:56:31.176Z,22.39
2022-12-03T19:58:58.026Z,21.19
2022-12-03T20:01:28.040Z,19.98
2022-12-03T20:03:56.509Z,20.01
2022-12-03T20:06:26.413Z,20.41
2022-12-03T20:09:00.901Z,20.62
2022-12-03T20:11:33.059Z,20.13
2022-12-03T20:14:03.664Z,20.03
2022-12-03T20:16:30.681Z,19.83
2022-12-03T20:19:00.137Z,19.30
2022-12-03T20:21:30.204Z,19.65
2022-12-03T20:23:56.892Z,20.96
2022-12-03T20:26:24.097Z,22.60
2022-12-03T20:28:53.419Z,20.64
2022-12-03T20:31:22.533Z,20.03
2022-12-03T20:33:52.380Z,19.79
2022-12-03T20:36:20.826Z,20.36
2022-12-03T20:38:47.408Z,22.03
2022-12-03T20:41:18.200Z,21.16
2022-12-03T20:43:45.223Z,19.38
2022-12-03T20:46:16.642Z,20.68
2022-12-03T20:48:44.855Z,24.29
2022-12-03T20:51:18.547Z,21.89
2022-12-03T20:53:45.970Z,21.27
2022-12-03T20:56:25.257Z,20.22
2022-12-03T20:58:52.204Z,20.13
2022-12-03T21:01:25.294Z,19.71
2022-12-03T21:03:53.968Z,19.56
2022-12-03T21:06:22.002Z,19.61
2022-12-03T21:08:48.694Z,20.46
2022-12-03T21:11:22.635Z,21.00
2022-12-03T21:13:49.775Z,20.84
2022-12-03T21:16:19.085Z,20.55
2022-12-03T21:18:45.724Z,20.14
2022-12-03T21:21:14.492Z,21.49
2022-12-03T21:23:42.465Z,20.96
2022-12-03T21:26:14.836Z,20.71
2022-12-03T21:28:43.408Z,20.80
2022-12-03T21:31:17.923Z,20.77
2022-12-03T21:33:45.476Z,20.10
2022-12-03T21:36:13.368Z,20.28
2022-12-03T21:38:40.030Z,20.45
2022-12-03T21:41:07.006Z,20.34
2022-12-03T21:43:33.680Z,20.34
2022-12-03T21:46:04.329Z,21.34
2022-12-03T21:48:50.791Z,21.39
2022-12-03T21:51:18.524Z,20.06
2022-12-03T21:53:45.932Z,20.61
2022-12-03T21:56:15.825Z,19.77
2022-12-03T21:58:43.411Z,20.47
2022-12-03T22:01:15.929Z,20.21
2022-12-03T22:03:42.764Z,19.62
2022-12-03T22:06:10.425Z,19.30
2022-12-03T22:08:37.674Z,19.50
2022-12-03T22:11:10.097Z,19.72
2022-12-03T22:13:40.816Z,19.90
2022-12-03T22:16:10.136Z,20.48
2022-12-03T22:18:37.283Z,20.29
2022-12-03T22:21:10.389Z,20.41
2022-12-03T22:23:37.455Z,20.78
2022-12-03T22:26:06.524Z,21.29
2022-12-03T22:28:34.435Z,20.31
2022-12-03T22:31:09.185Z,20.62
2022-12-03T22:33:36.668Z,19.84
2022-12-03T22:36:06.818Z,19.99
2022-12-03T22:38:34.149Z,20.85
2022-12-03T22:41:05.053Z,20.58
2022-12-03T22:43:31.522Z,19.71
2022-12-03T22:45:58.077Z,20.48
2022-12-03T22:48:25.003Z,19.95
2022-12-03T22:50:52.047Z,20.21
2022-12-03T22:53:19.400Z,20.18
2022-12-03T22:55:54.720Z,19.92
2022-12-03T22:58:21.462Z,19.00
2022-12-03T23:00:47.982Z,19.30
2022-12-03T23:03:14.635Z,19.23
2022-12-03T23:05:41.438Z,19.72
2022-12-03T23:08:12.207Z,19.49
2022-12-03T23:10:41.663Z,18.93
2022-12-03T23:13:09.368Z,19.18
2022-12-03T23:15:35.944Z,19.05
2022-12-03T23:18:02.495Z,19.28
2022-12-03T23:20:29.469Z,19.52
2022-12-03T23:22:56.157Z,18.94
2022-12-03T23:25:22.635Z,19.02
2022-12-03T23:27:49.134Z,18.88
2022-12-03T23:30:16.229Z,18.70
2022-12-03T23:32:43.219Z,18.88
2022-12-03T23:35:12.077Z,19.21
2022-12-03T23:37:42.042Z,18.66
2022-12-03T23:40:08.877Z,18.57
2022-12-03T23:42:35.372Z,18.37
2022-12-03T23:45:01.933Z,18.13
2022-12-03T23:47:28.429Z,18.06
2022-12-03T23:49:55.330Z,18.58
2022-12-03T23:52:21.984Z,18.43
2022-12-03T23:54:48.450Z,18.32
2022-12-03T23:57:14.941Z,18.10
2022-12-03T23:59:41.748Z,18.10
